createdAt,value
2019-05-06T00:00:59.562Z,6.50
2019-05-06T00:03:29.574Z,7.00
2019-05-06T00:05:59.420Z,6.27
2019-05-06T00:08:29.003Z,6.43
2019-05-06T00:10:58.788Z,7.03
2019-05-06T00:13:28.497Z,7.23
2019-05-06T00:15:58.161Z,6.00
2019-05-06T00:18:27.798Z,7.20
2019-05-06T00:20:57.710Z,6.33
2019-05-06T00:23:35.373Z,7.10
2019-05-06T00:26:25.044Z,6.67
2019-05-06T00:28:57.860Z,8.87
2019-05-06T00:31:27.423Z,8.10
2019-05-06T00:33:57.027Z,10.93
2019-05-06T00:36:26.676Z,12.47
2019-05-06T00:38:59.312Z,16.77
2019-05-06T00:41:31.392Z,11.17
2019-05-06T00:44:01.025Z,13.10
2019-05-06T00:46:30.636Z,13.27
2019-05-06T00:49:00.210Z,14.43
2019-05-06T00:51:29.859Z,18.27
2019-05-06T00:54:04.747Z,20.23
2019-05-06T00:56:34.378Z,17.90
2019-05-06T00:59:04.089Z,19.17
2019-05-06T01:01:34.535Z,18.40
2019-05-06T01:04:05.230Z,17.63
2019-05-06T01:06:34.823Z,17.37
2019-05-06T01:09:07.307Z,17.07
2019-05-06T01:11:36.947Z,18.80
2019-05-06T01:14:14.845Z,18.40
2019-05-06T01:16:44.541Z,19.53
2019-05-06T01:19:14.286Z,18.27
2019-05-06T01:21:44.773Z,19.90
2019-05-06T01:24:14.778Z,19.67
2019-05-06T01:26:44.668Z,19.67
2019-05-06T01:29:14.686Z,18.93
2019-05-06T01:31:46.163Z,16.87
2019-05-06T01:34:16.594Z,9.33
2019-05-06T01:36:48.173Z,17.60
2019-05-06T01:39:46.088Z,19.23
2019-05-06T01:42:40.467Z,15.90
2019-05-06T01:45:10.331Z,12.70
2019-05-06T01:47:39.912Z,11.83
2019-05-06T01:50:10.983Z,12.90
2019-05-06T01:52:40.585Z,15.17
2019-05-06T01:55:10.430Z,16.77
2019-05-06T01:57:41.203Z,19.00
2019-05-06T02:00:11.319Z,16.20
2019-05-06T02:02:40.919Z,18.30
2019-05-06T02:05:13.731Z,16.50
2019-05-06T02:07:43.925Z,14.40
2019-05-06T02:10:14.167Z,15.83
2019-05-06T02:12:44.418Z,13.27
2019-05-06T02:15:14.678Z,16.43
2019-05-06T02:17:44.428Z,15.33
2019-05-06T02:20:34.142Z,14.13
2019-05-06T02:23:14.550Z,16.50
2019-05-06T02:25:47.645Z,19.03
2019-05-06T02:28:17.296Z,14.13
2019-05-06T02:31:14.629Z,12.40
2019-05-06T02:34:10.954Z,13.67
2019-05-06T02:37:07.337Z,13.63
2019-05-06T02:39:37.029Z,13.77
2019-05-06T02:42:08.663Z,15.37
2019-05-06T02:44:38.303Z,16.20
2019-05-06T02:47:30.029Z,17.60
2019-05-06T02:50:04.521Z,14.93
2019-05-06T02:52:34.405Z,11.47
2019-05-06T02:55:06.437Z,12.83
2019-05-06T02:57:35.423Z,14.30
2019-05-06T03:00:25.171Z,12.23
2019-05-06T03:02:55.023Z,13.90
2019-05-06T03:05:44.872Z,13.43
2019-05-06T03:08:14.562Z,13.40
2019-05-06T03:10:44.645Z,13.47
2019-05-06T03:13:14.615Z,13.10
2019-05-06T03:15:44.377Z,10.83
2019-05-06T03:18:15.098Z,11.80
2019-05-06T03:20:55.550Z,14.20
2019-05-06T03:23:26.852Z,14.23
2019-05-06T03:25:56.482Z,12.10
2019-05-06T03:28:26.119Z,12.27
2019-05-06T03:30:57.043Z,12.37
2019-05-06T03:33:47.839Z,13.07
2019-05-06T03:36:15.478Z,11.17
2019-05-06T03:38:34.760Z,12.40
2019-05-06T03:41:04.377Z,12.40
2019-05-06T03:43:34.155Z,13.30
2019-05-06T03:46:23.247Z,12.10
2019-05-06T03:48:55.862Z,13.53
2019-05-06T03:51:25.542Z,13.97
2019-05-06T03:53:56.802Z,12.50
2019-05-06T03:56:33.719Z,13.63
2019-05-06T03:59:02.907Z,13.23
2019-05-06T04:01:33.624Z,13.43
2019-05-06T04:04:03.907Z,13.00
2019-05-06T04:06:33.887Z,13.30
2019-05-06T04:09:05.454Z,13.03
2019-05-06T04:11:36.482Z,12.37
2019-05-06T04:14:08.277Z,12.37
2019-05-06T04:16:47.441Z,14.17
2019-05-06T04:19:33.124Z,11.83
2019-05-06T04:22:13.448Z,14.13
2019-05-06T04:24:49.088Z,13.47
2019-05-06T04:27:33.900Z,16.90
2019-05-06T04:30:04.872Z,16.00
2019-05-06T04:32:35.012Z,14.60
2019-05-06T04:35:23.631Z,14.40
2019-05-06T04:37:54.687Z,17.40
2019-05-06T04:40:44.095Z,16.63
2019-05-06T04:43:14.069Z,16.40
2019-05-06T04:45:43.652Z,17.13
2019-05-06T04:48:14.327Z,17.50
2019-05-06T04:51:03.476Z,17.83
2019-05-06T04:53:53.659Z,17.23
2019-05-06T04:56:24.122Z,15.00
2019-05-06T04:59:14.491Z,16.83
2019-05-06T05:01:45.502Z,14.27
2019-05-06T05:04:27.725Z,14.90
2019-05-06T05:06:47.540Z,13.90
2019-05-06T05:09:17.644Z,13.93
2019-05-06T05:11:55.056Z,13.60
2019-05-06T05:14:43.650Z,14.60
2019-05-06T05:17:22.339Z,15.17
2019-05-06T05:19:52.299Z,13.77
2019-05-06T05:22:22.008Z,12.63
2019-05-06T05:24:54.619Z,13.40
2019-05-06T05:27:24.283Z,13.10
2019-05-06T05:30:13.049Z,12.40
2019-05-06T05:32:42.936Z,13.43
2019-05-06T05:35:12.842Z,10.73
2019-05-06T05:37:42.689Z,10.47
2019-05-06T05:40:15.549Z,11.60
2019-05-06T05:43:18.621Z,11.80
2019-05-06T05:46:07.245Z,11.37
2019-05-06T05:48:55.875Z,9.13
2019-05-06T05:51:25.470Z,8.90
2019-05-06T05:53:55.604Z,11.53
2019-05-06T05:56:25.226Z,8.97
2019-05-06T05:58:54.872Z,6.90
2019-05-06T06:01:26.703Z,8.50
2019-05-06T06:03:56.584Z,7.93
2019-05-06T06:06:26.463Z,8.33
2019-05-06T06:08:56.068Z,8.87
2019-05-06T06:11:29.909Z,7.87
2019-05-06T06:14:03.044Z,8.00
2019-05-06T06:16:53.312Z,7.40
2019-05-06T06:19:32.905Z,6.43
2019-05-06T06:22:05.546Z,5.67
2019-05-06T06:24:54.309Z,5.27
2019-05-06T06:27:24.019Z,5.03
2019-05-06T06:29:56.511Z,4.80
2019-05-06T06:32:28.407Z,3.93
2019-05-06T06:35:10.741Z,4.37
2019-05-06T06:37:46.865Z,3.60
2019-05-06T06:40:18.436Z,3.93
2019-05-06T06:42:52.500Z,4.27
2019-05-06T06:45:23.032Z,4.53
2019-05-06T06:47:52.820Z,4.70
2019-05-06T06:50:22.458Z,4.40
2019-05-06T06:52:52.698Z,4.47
2019-05-06T06:55:22.641Z,5.27
2019-05-06T06:58:19.416Z,5.60
2019-05-06T07:01:14.111Z,5.30
2019-05-06T07:04:11.196Z,5.43
2019-05-06T07:06:46.119Z,4.83
2019-05-06T07:09:15.826Z,4.33
2019-05-06T07:11:45.421Z,4.80
2019-05-06T07:14:14.972Z,4.00
2019-05-06T07:16:44.601Z,3.30
2019-05-06T07:19:16.234Z,3.30
2019-05-06T07:21:55.118Z,3.80
2019-05-06T07:24:24.727Z,3.70
2019-05-06T07:27:03.017Z,3.30
2019-05-06T07:29:32.903Z,2.30
2019-05-06T07:32:02.848Z,2.80
2019-05-06T07:34:34.526Z,2.83
2019-05-06T07:37:08.003Z,2.80
2019-05-06T07:39:39.505Z,2.93
2019-05-06T07:42:17.045Z,3.13
2019-05-06T07:45:12.369Z,2.80
2019-05-06T07:47:55.215Z,2.97
2019-05-06T07:50:25.189Z,3.10
2019-05-06T07:53:07.007Z,3.07
2019-05-06T07:55:37.661Z,3.60
2019-05-06T07:58:07.694Z,2.97
2019-05-06T08:00:37.958Z,3.00
2019-05-06T08:03:07.710Z,3.20
2019-05-06T08:05:37.468Z,3.10
2019-05-06T08:08:07.138Z,3.03
2019-05-06T08:10:36.760Z,2.00
2019-05-06T08:13:06.533Z,1.90
2019-05-06T08:15:36.246Z,1.90
2019-05-06T08:18:05.947Z,2.30
2019-05-06T08:20:38.835Z,1.90
2019-05-06T08:23:15.533Z,2.10
2019-05-06T08:25:47.597Z,2.00
2019-05-06T08:28:17.362Z,2.10
2019-05-06T08:30:47.111Z,1.70
2019-05-06T08:33:16.835Z,1.70
2019-05-06T08:35:46.484Z,1.70
2019-05-06T08:38:16.104Z,1.77
2019-05-06T08:40:45.738Z,1.73
2019-05-06T08:43:15.418Z,1.60
2019-05-06T08:45:45.036Z,1.50
2019-05-06T08:48:14.736Z,1.43
2019-05-06T08:51:09.092Z,1.30
2019-05-06T08:53:46.695Z,1.30
2019-05-06T08:56:22.034Z,1.40
2019-05-06T08:58:52.849Z,1.00
2019-05-06T09:01:34.587Z,1.20
2019-05-06T09:04:09.483Z,1.40
2019-05-06T09:06:36.103Z,1.10
2019-05-06T09:09:08.481Z,1.20
2019-05-06T09:11:38.335Z,1.43
2019-05-06T09:14:09.939Z,1.37
2019-05-06T09:16:58.310Z,1.20
2019-05-06T09:19:27.922Z,2.07
2019-05-06T09:21:57.600Z,1.23
2019-05-06T09:24:27.216Z,1.53
2019-05-06T09:27:02.985Z,1.10
2019-05-06T09:29:46.195Z,1.40
2019-05-06T09:32:36.075Z,1.20
2019-05-06T09:35:07.209Z,1.30
2019-05-06T09:37:36.903Z,1.30
2019-05-06T09:40:07.199Z,0.90
2019-05-06T09:42:36.791Z,1.30
2019-05-06T09:45:06.851Z,1.10
2019-05-06T09:48:03.751Z,1.30
2019-05-06T09:50:39.963Z,1.13
2019-05-06T09:53:13.952Z,1.10
2019-05-06T09:56:03.362Z,1.30
2019-05-06T09:58:33.126Z,0.90
2019-05-06T10:01:03.838Z,1.00
2019-05-06T10:03:33.504Z,0.97
2019-05-06T10:06:03.075Z,0.80
2019-05-06T10:08:32.752Z,1.23
2019-05-06T10:11:03.153Z,1.23
2019-05-06T10:13:33.169Z,1.60
2019-05-06T10:16:03.159Z,1.60
2019-05-06T10:18:33.039Z,1.47
2019-05-06T10:21:02.735Z,1.33
2019-05-06T10:23:32.725Z,1.47
2019-05-06T10:26:04.513Z,1.03
2019-05-06T10:28:48.086Z,0.93
2019-05-06T10:31:18.835Z,1.23
2019-05-06T10:34:06.148Z,1.17
2019-05-06T10:36:42.785Z,1.13
2019-05-06T10:39:14.812Z,1.60
2019-05-06T10:41:47.468Z,1.50
2019-05-06T10:45:01.860Z,1.60
2019-05-06T10:47:33.038Z,1.83
2019-05-06T10:50:02.591Z,1.50
2019-05-06T10:52:51.853Z,1.40
2019-05-06T10:55:23.168Z,1.50
2019-05-06T10:57:53.355Z,1.50
2019-05-06T11:00:23.273Z,4.03
2019-05-06T11:03:22.721Z,2.67
2019-05-06T11:05:53.663Z,2.53
2019-05-06T11:08:23.681Z,1.90
2019-05-06T11:10:53.703Z,1.97
2019-05-06T11:13:24.474Z,2.60
2019-05-06T11:15:55.675Z,2.00
2019-05-06T11:18:25.495Z,1.87
2019-05-06T11:20:56.189Z,1.80
2019-05-06T11:23:26.242Z,1.87
2019-05-06T11:25:55.912Z,2.40
2019-05-06T11:28:43.348Z,1.87
2019-05-06T11:31:34.963Z,2.00
2019-05-06T11:34:14.803Z,1.90
2019-05-06T11:36:52.628Z,1.87
2019-05-06T11:39:23.215Z,2.60
2019-05-06T11:42:14.426Z,2.93
2019-05-06T11:44:24.535Z,3.20
2019-05-06T11:46:54.114Z,1.80
2019-05-06T11:49:23.768Z,1.97
2019-05-06T11:51:53.383Z,2.40
2019-05-06T11:54:24.415Z,1.70
2019-05-06T11:56:58.107Z,1.90
2019-05-06T11:59:25.567Z,1.57
2019-05-06T12:02:17.910Z,1.50
2019-05-06T12:04:47.591Z,1.70
2019-05-06T12:07:17.212Z,1.80
2019-05-06T12:09:46.833Z,1.40
2019-05-06T12:12:16.587Z,1.63
2019-05-06T12:14:46.245Z,1.63
2019-05-06T12:17:15.969Z,1.90
2019-05-06T12:19:45.620Z,1.60
2019-05-06T12:22:15.281Z,1.77
2019-05-06T12:24:45.064Z,1.50
2019-05-06T12:27:33.801Z,2.00
2019-05-06T12:30:05.407Z,1.97
2019-05-06T12:32:43.322Z,2.10
2019-05-06T12:35:13.426Z,2.20
2019-05-06T12:37:44.696Z,2.70
2019-05-06T12:40:14.264Z,2.43
2019-05-06T12:42:53.460Z,2.20
2019-05-06T12:45:53.011Z,2.50
2019-05-06T12:48:26.066Z,2.13
2019-05-06T12:50:57.364Z,2.47
2019-05-06T12:53:29.429Z,2.03
2019-05-06T12:55:59.305Z,2.50
2019-05-06T12:58:29.017Z,2.33
2019-05-06T13:00:58.631Z,2.30
2019-05-06T13:03:31.586Z,2.00
2019-05-06T13:06:07.442Z,2.30
2019-05-06T13:08:49.805Z,1.90
2019-05-06T13:11:02.794Z,1.70
2019-05-06T13:13:33.192Z,2.27
2019-05-06T13:16:03.334Z,2.17
2019-05-06T13:18:32.981Z,2.00
2019-05-06T13:21:06.465Z,1.57
2019-05-06T13:24:04.355Z,1.70
2019-05-06T13:26:33.319Z,1.97
2019-05-06T13:29:10.208Z,1.90
2019-05-06T13:31:39.795Z,2.20
2019-05-06T13:34:16.307Z,2.20
2019-05-06T13:36:46.284Z,1.97
2019-05-06T13:39:16.326Z,2.80
2019-05-06T13:41:46.016Z,3.30
2019-05-06T13:44:17.056Z,3.55
2019-05-06T13:46:56.139Z,2.60
2019-05-06T13:49:56.176Z,2.80
2019-05-06T13:52:27.821Z,1.90
2019-05-06T13:54:57.514Z,2.63
2019-05-06T13:57:29.037Z,2.20
2019-05-06T13:59:58.998Z,2.30
2019-05-06T14:02:53.157Z,2.12
2019-05-06T14:05:23.490Z,2.02
2019-05-06T14:07:53.181Z,2.33
2019-05-06T14:10:22.875Z,2.15
2019-05-06T14:12:53.300Z,2.10
2019-05-06T14:15:23.404Z,2.22
2019-05-06T14:17:53.429Z,2.40
2019-05-06T14:20:23.679Z,2.67
2019-05-06T14:22:53.326Z,2.12
2019-05-06T14:25:48.128Z,2.05
2019-05-06T14:28:32.897Z,1.85
2019-05-06T14:31:16.926Z,1.75
2019-05-06T14:33:46.661Z,1.50
2019-05-06T14:36:16.409Z,2.00
2019-05-06T14:38:46.044Z,2.45
2019-05-06T14:41:18.709Z,1.95
2019-05-06T14:43:48.388Z,1.95
2019-05-06T14:46:18.059Z,1.72
2019-05-06T14:48:47.779Z,1.85
2019-05-06T14:51:17.494Z,1.98
2019-05-06T14:53:47.179Z,2.00
2019-05-06T14:56:32.572Z,1.95
2019-05-06T14:59:08.016Z,1.85
2019-05-06T15:01:39.335Z,1.47
2019-05-06T15:04:12.550Z,1.57
2019-05-06T15:06:42.734Z,1.40
2019-05-06T15:09:14.253Z,1.70
2019-05-06T15:11:43.919Z,1.30
2019-05-06T15:14:13.603Z,1.72
2019-05-06T15:16:43.219Z,1.52
2019-05-06T15:19:13.071Z,1.55
2019-05-06T15:21:43.085Z,1.57
2019-05-06T15:24:14.710Z,1.80
2019-05-06T15:26:44.504Z,1.50
2019-05-06T15:29:14.224Z,1.80
2019-05-06T15:32:05.652Z,1.67
2019-05-06T15:34:56.052Z,1.80
2019-05-06T15:37:33.686Z,1.75
2019-05-06T15:40:04.157Z,1.85
2019-05-06T15:42:34.198Z,1.47
2019-05-06T15:45:05.205Z,1.75
2019-05-06T15:47:37.239Z,1.62
2019-05-06T15:50:12.513Z,1.50
2019-05-06T15:52:44.969Z,1.75
2019-05-06T15:55:15.171Z,1.90
2019-05-06T15:57:44.933Z,1.65
2019-05-06T16:00:17.252Z,1.90
2019-05-06T16:02:47.006Z,1.60
2019-05-06T16:05:20.028Z,1.65
2019-05-06T16:07:52.818Z,1.42
2019-05-06T16:10:22.707Z,1.70
2019-05-06T16:12:55.115Z,2.45
2019-05-06T16:15:29.228Z,1.90
2019-05-06T16:18:04.517Z,1.92
2019-05-06T16:20:35.311Z,1.42
2019-05-06T16:23:12.926Z,1.22
2019-05-06T16:25:54.641Z,1.90
2019-05-06T16:28:28.709Z,1.60
2019-05-06T16:30:58.546Z,2.00
2019-05-06T16:33:32.922Z,2.02
2019-05-06T16:36:03.457Z,2.10
2019-05-06T16:38:34.418Z,1.72
2019-05-06T16:41:12.670Z,1.90
2019-05-06T16:43:43.510Z,2.17
2019-05-06T16:46:17.155Z,1.70
2019-05-06T16:48:53.018Z,1.70
2019-05-06T16:51:32.719Z,2.10
2019-05-06T16:54:04.220Z,2.00
2019-05-06T16:56:44.631Z,2.20
2019-05-06T16:59:16.250Z,2.50
2019-05-06T17:01:49.215Z,2.10
2019-05-06T17:04:28.717Z,1.80
2019-05-06T17:07:07.344Z,1.87
2019-05-06T17:09:42.976Z,1.70
2019-05-06T17:12:27.298Z,1.60
2019-05-06T17:15:03.780Z,1.80
2019-05-06T17:17:43.465Z,1.50
2019-05-06T17:20:12.183Z,1.50
2019-05-06T17:22:42.722Z,1.70
2019-05-06T17:25:15.587Z,1.47
2019-05-06T17:27:52.691Z,1.60
2019-05-06T17:30:43.789Z,1.47
2019-05-06T17:33:33.319Z,1.70
2019-05-06T17:36:09.274Z,1.50
2019-05-06T17:38:43.489Z,1.57
2019-05-06T17:41:17.041Z,1.70
2019-05-06T17:44:05.491Z,1.43
2019-05-06T17:46:52.750Z,1.33
2019-05-06T17:49:24.714Z,1.50
2019-05-06T17:52:05.806Z,1.67
2019-05-06T17:54:35.552Z,1.70
2019-05-06T17:57:05.595Z,1.83
2019-05-06T17:59:37.444Z,1.50
2019-05-06T18:02:10.572Z,1.90
2019-05-06T18:04:42.888Z,1.90
2019-05-06T18:07:17.669Z,1.97
2019-05-06T18:10:06.568Z,2.10
2019-05-06T18:12:38.187Z,1.70
2019-05-06T18:15:14.726Z,2.47
2019-05-06T18:18:04.558Z,2.17
2019-05-06T18:20:34.505Z,2.17
2019-05-06T18:23:07.394Z,2.20
2019-05-06T18:25:39.683Z,2.93
2019-05-06T18:28:12.265Z,2.50
2019-05-06T18:31:03.102Z,3.17
2019-05-06T18:33:32.962Z,2.87
2019-05-06T18:36:06.149Z,3.07
2019-05-06T18:38:35.793Z,3.00
2019-05-06T18:41:24.663Z,3.33
2019-05-06T18:43:59.712Z,3.50
2019-05-06T18:46:32.408Z,4.07
2019-05-06T18:49:02.639Z,3.90
2019-05-06T18:51:32.564Z,5.33
2019-05-06T18:54:03.105Z,4.57
2019-05-06T18:56:33.092Z,4.73
2019-05-06T18:59:04.007Z,4.60
2019-05-06T19:01:37.307Z,5.20
2019-05-06T19:04:26.082Z,5.30
2019-05-06T19:07:09.442Z,4.13
2019-05-06T19:09:48.476Z,4.60
2019-05-06T19:12:30.369Z,4.77
2019-05-06T19:14:55.615Z,3.97
2019-05-06T19:17:25.516Z,4.20
2019-05-06T19:19:55.408Z,4.40
2019-05-06T19:22:27.664Z,4.37
2019-05-06T19:24:59.496Z,4.53
2019-05-06T19:27:29.198Z,4.67
2019-05-06T19:30:02.344Z,4.77
2019-05-06T19:32:34.550Z,4.97
2019-05-06T19:35:04.490Z,5.23
2019-05-06T19:37:38.145Z,4.80
2019-05-06T19:40:09.524Z,5.10
2019-05-06T19:42:46.941Z,5.33
2019-05-06T19:45:17.956Z,5.33
2019-05-06T19:47:49.580Z,5.03
2019-05-06T19:50:26.037Z,4.53
2019-05-06T19:53:20.682Z,4.30
2019-05-06T19:55:57.900Z,4.40
2019-05-06T19:58:54.544Z,4.70
2019-05-06T20:01:10.005Z,4.30
2019-05-06T20:03:40.006Z,3.63
2019-05-06T20:06:40.841Z,4.27
2019-05-06T20:09:42.648Z,4.30
2019-05-06T20:12:39.472Z,3.60
2019-05-06T20:15:37.078Z,3.87
2019-05-06T20:18:07.568Z,4.27
2019-05-06T20:20:37.578Z,4.10
2019-05-06T20:23:07.579Z,5.23
2019-05-06T20:25:56.343Z,5.20
2019-05-06T20:28:26.050Z,4.17
2019-05-06T20:30:55.716Z,4.20
2019-05-06T20:33:25.425Z,3.90
2019-05-06T20:35:55.112Z,4.30
2019-05-06T20:38:24.834Z,4.50
2019-05-06T20:41:13.630Z,4.00
2019-05-06T20:43:43.303Z,3.97
2019-05-06T20:46:12.966Z,4.60
2019-05-06T20:48:42.797Z,3.77
2019-05-06T20:51:12.489Z,3.83
2019-05-06T20:53:43.163Z,3.83
2019-05-06T20:56:12.971Z,4.33
2019-05-06T20:58:42.611Z,4.30
2019-05-06T21:01:12.327Z,3.90
2019-05-06T21:03:42.522Z,4.00
2019-05-06T21:06:13.177Z,4.00
2019-05-06T21:08:43.063Z,4.43
2019-05-06T21:11:25.760Z,3.70
2019-05-06T21:14:07.575Z,3.23
2019-05-06T21:16:37.084Z,3.03
2019-05-06T21:19:09.175Z,4.27
2019-05-06T21:21:57.499Z,4.33
2019-05-06T21:24:27.334Z,5.40
2019-05-06T21:26:57.139Z,5.53
2019-05-06T21:29:26.923Z,6.47
2019-05-06T21:31:57.648Z,5.23
2019-05-06T21:34:27.458Z,6.10
2019-05-06T21:37:17.771Z,6.07
2019-05-06T21:39:47.465Z,6.73
2019-05-06T21:42:17.100Z,6.57
2019-05-06T21:44:46.770Z,6.47
2019-05-06T21:47:16.411Z,5.20
2019-05-06T21:49:48.944Z,5.63
2019-05-06T21:52:18.682Z,4.67
2019-05-06T21:54:48.302Z,4.77
2019-05-06T21:57:18.108Z,5.00
2019-05-06T21:59:47.721Z,4.67
2019-05-06T22:02:18.920Z,4.80
2019-05-06T22:04:48.592Z,4.20
2019-05-06T22:07:18.326Z,4.70
2019-05-06T22:09:48.000Z,4.83
2019-05-06T22:12:17.657Z,4.50
2019-05-06T22:14:47.483Z,4.00
2019-05-06T22:17:17.207Z,3.90
2019-05-06T22:20:06.154Z,3.33
2019-05-06T22:22:36.030Z,3.57
2019-05-06T22:25:06.315Z,4.27
2019-05-06T22:27:36.044Z,3.80
2019-05-06T22:30:24.735Z,3.50
2019-05-06T22:32:54.541Z,3.43
2019-05-06T22:35:24.315Z,3.33
2019-05-06T22:37:54.015Z,2.90
2019-05-06T22:40:24.953Z,3.17
2019-05-06T22:43:00.583Z,2.83
2019-05-06T22:45:54.026Z,3.33
2019-05-06T22:48:25.184Z,3.10
2019-05-06T22:50:55.028Z,3.80
2019-05-06T22:53:26.013Z,3.27
2019-05-06T22:55:57.261Z,3.33
2019-05-06T22:58:28.120Z,3.03
2019-05-06T23:00:58.075Z,2.97
2019-05-06T23:03:31.720Z,3.80
2019-05-06T23:06:02.551Z,3.07
2019-05-06T23:08:32.572Z,3.13
2019-05-06T23:11:02.453Z,3.70
2019-05-06T23:13:32.091Z,3.30
2019-05-06T23:16:02.073Z,2.77
2019-05-06T23:18:32.115Z,3.10
2019-05-06T23:21:02.457Z,3.10
2019-05-06T23:23:34.085Z,3.20
2019-05-06T23:26:24.057Z,3.57
2019-05-06T23:28:56.190Z,3.40
2019-05-06T23:31:25.850Z,3.40
2019-05-06T23:33:55.528Z,3.00
2019-05-06T23:36:28.453Z,3.53
2019-05-06T23:39:33.959Z,3.80
2019-05-06T23:42:41.926Z,3.43
2019-05-06T23:45:47.578Z,4.13
2019-05-06T23:48:53.063Z,3.73
2019-05-06T23:51:58.339Z,3.13
2019-05-06T23:55:03.884Z,3.80
2019-05-06T23:57:32.572Z,4.10
